createdAt,value
2017-05-29T00:00:28.346Z,0
2017-05-29T00:01:38.605Z,0
2017-05-29T00:02:48.901Z,0
2017-05-29T00:03:58.224Z,0
2017-05-29T00:05:08.180Z,0
2017-05-29T00:06:17.817Z,0
2017-05-29T00:07:28.085Z,0
2017-05-29T00:08:38.037Z,0
2017-05-29T00:09:48.304Z,0
2017-05-29T00:10:57.639Z,0
2017-05-29T00:12:07.590Z,0
2017-05-29T00:13:17.232Z,0
2017-05-29T00:14:27.184Z,0
2017-05-29T00:15:37.446Z,0
2017-05-29T00:16:47.707Z,0
2017-05-29T00:17:57.972Z,0
2017-05-29T00:19:07.921Z,0
2017-05-29T00:20:17.558Z,0
2017-05-29T00:21:27.508Z,0
2017-05-29T00:22:37.776Z,0
2017-05-29T00:23:47.737Z,0
2017-05-29T00:24:58.004Z,0
2017-05-29T00:26:07.958Z,0
2017-05-29T00:27:17.595Z,0
2017-05-29T00:28:27.556Z,0
2017-05-29T00:29:37.715Z,0
2017-05-29T00:30:47.991Z,0
2017-05-29T00:31:57.949Z,0
2017-05-29T00:33:08.215Z,0
2017-05-29T00:34:18.489Z,0
2017-05-29T00:35:28.436Z,0
2017-05-29T00:36:38.704Z,0
2017-05-29T00:37:48.969Z,0
2017-05-29T00:38:58.923Z,0
2017-05-29T00:40:09.196Z,0
2017-05-29T00:41:18.833Z,0
2017-05-29T00:42:28.476Z,0
2017-05-29T00:43:38.745Z,0
2017-05-29T00:44:49.005Z,0
2017-05-29T00:45:59.263Z,0
2017-05-29T00:47:09.531Z,0
2017-05-29T00:48:19.169Z,0
2017-05-29T00:49:29.439Z,0
2017-05-29T00:50:39.705Z,0
2017-05-29T00:51:49.969Z,0
2017-05-29T00:53:00.234Z,0
2017-05-29T00:54:10.185Z,0
2017-05-29T00:55:20.132Z,0
2017-05-29T00:56:30.393Z,0
2017-05-29T00:57:40.341Z,0
2017-05-29T00:58:50.608Z,0
2017-05-29T01:00:00.881Z,0
2017-05-29T01:01:11.145Z,0
2017-05-29T01:02:21.419Z,0
2017-05-29T01:03:31.692Z,0
2017-05-29T01:04:41.963Z,0
2017-05-29T01:05:52.228Z,0
2017-05-29T01:07:02.178Z,0
2017-05-29T01:08:12.127Z,0
2017-05-29T01:09:21.769Z,0
2017-05-29T01:10:32.030Z,0
2017-05-29T01:11:42.295Z,0
2017-05-29T01:12:52.565Z,0
2017-05-29T01:14:02.838Z,0
2017-05-29T01:15:12.784Z,0
2017-05-29T01:16:23.053Z,0
2017-05-29T01:17:33.326Z,0
2017-05-29T01:18:43.585Z,0
2017-05-29T01:19:53.845Z,0
2017-05-29T01:21:03.491Z,0
2017-05-29T01:22:13.445Z,0
2017-05-29T01:23:23.395Z,0
2017-05-29T01:24:33.657Z,0
2017-05-29T01:25:43.929Z,0
2017-05-29T01:26:54.186Z,0
2017-05-29T01:28:04.460Z,0
2017-05-29T01:29:14.721Z,0
2017-05-29T01:30:24.999Z,0
2017-05-29T01:31:35.256Z,0
2017-05-29T01:32:45.525Z,0
2017-05-29T01:33:55.794Z,0
2017-05-29T01:35:05.438Z,0
2017-05-29T01:36:15.704Z,0
2017-05-29T01:37:25.965Z,0
2017-05-29T01:38:36.231Z,0
2017-05-29T01:39:46.514Z,0
2017-05-29T01:40:56.465Z,0
2017-05-29T01:42:06.740Z,0
2017-05-29T01:43:16.696Z,0
2017-05-29T01:44:26.648Z,0
2017-05-29T01:45:36.594Z,0
2017-05-29T01:46:46.861Z,0
2017-05-29T01:47:57.130Z,0
2017-05-29T01:49:07.391Z,0
2017-05-29T01:50:17.343Z,0
2017-05-29T01:51:26.979Z,0
2017-05-29T01:52:37.247Z,5
2017-05-29T01:53:47.517Z,5
2017-05-29T01:54:57.471Z,5
2017-05-29T01:56:07.736Z,5
2017-05-29T01:57:17.999Z,5
2017-05-29T01:58:28.263Z,5
2017-05-29T01:59:37.593Z,5
2017-05-29T02:00:47.858Z,5
2017-05-29T02:01:57.820Z,5
2017-05-29T02:03:08.087Z,5
2017-05-29T02:04:18.043Z,5
2017-05-29T02:05:27.737Z,10
2017-05-29T02:06:37.684Z,10
2017-05-29T02:07:47.950Z,10
2017-05-29T02:08:57.906Z,10
2017-05-29T02:10:07.859Z,10
2017-05-29T02:11:17.498Z,10
2017-05-29T02:12:27.462Z,10
2017-05-29T02:13:37.728Z,15
2017-05-29T02:14:47.677Z,15
2017-05-29T02:15:57.631Z,15
2017-05-29T02:17:07.900Z,15
2017-05-29T02:18:18.168Z,15
2017-05-29T02:19:28.129Z,20
2017-05-29T02:20:38.390Z,20
2017-05-29T02:21:48.718Z,20
2017-05-29T02:22:58.670Z,20
2017-05-29T02:24:08.626Z,20
2017-05-29T02:25:18.895Z,20
2017-05-29T02:26:28.537Z,20
2017-05-29T02:27:37.867Z,20
2017-05-29T02:28:48.134Z,20
2017-05-29T02:29:58.410Z,25
2017-05-29T02:31:08.676Z,25
2017-05-29T02:32:18.622Z,25
2017-05-29T02:33:27.949Z,25
2017-05-29T02:34:37.905Z,30
2017-05-29T02:35:48.167Z,30
2017-05-29T02:36:58.432Z,30
2017-05-29T02:38:08.385Z,30
2017-05-29T02:39:18.334Z,35
2017-05-29T02:40:28.596Z,35
2017-05-29T02:41:38.860Z,35
2017-05-29T02:42:49.130Z,40
2017-05-29T02:43:59.398Z,40
2017-05-29T02:45:09.672Z,45
2017-05-29T02:46:19.938Z,45
2017-05-29T02:47:30.213Z,45
2017-05-29T02:48:40.166Z,45
2017-05-29T02:49:50.435Z,45
2017-05-29T02:51:00.075Z,50
2017-05-29T02:52:09.707Z,50
2017-05-29T02:53:19.977Z,50
2017-05-29T02:54:29.621Z,55
2017-05-29T02:55:39.883Z,55
2017-05-29T02:56:50.148Z,55
2017-05-29T02:58:00.111Z,55
2017-05-29T02:59:09.435Z,55
2017-05-29T03:00:19.378Z,60
2017-05-29T03:01:29.333Z,60
2017-05-29T03:02:39.287Z,65
2017-05-29T03:03:49.551Z,65
2017-05-29T03:04:59.821Z,70
2017-05-29T03:06:09.772Z,70
2017-05-29T03:07:19.720Z,70
2017-05-29T03:08:29.984Z,75
2017-05-29T03:09:39.621Z,75
2017-05-29T03:10:49.890Z,75
2017-05-29T03:12:00.155Z,80
2017-05-29T03:13:10.111Z,80
2017-05-29T03:14:20.454Z,85
2017-05-29T03:15:30.088Z,85
2017-05-29T03:16:40.038Z,85
2017-05-29T03:17:50.367Z,85
2017-05-29T03:19:00.638Z,90
2017-05-29T03:20:10.909Z,90
2017-05-29T03:21:20.864Z,90
2017-05-29T03:22:30.814Z,90
2017-05-29T03:23:41.082Z,95
2017-05-29T03:24:51.038Z,95
2017-05-29T03:26:01.304Z,95
2017-05-29T03:27:10.941Z,100
2017-05-29T03:28:21.210Z,100
2017-05-29T03:29:31.475Z,100
2017-05-29T03:30:41.733Z,100
2017-05-29T03:31:51.370Z,105
2017-05-29T03:33:01.645Z,105
2017-05-29T03:34:10.974Z,105
2017-05-29T03:35:20.922Z,105
2017-05-29T03:36:31.188Z,105
2017-05-29T03:37:41.470Z,105
2017-05-29T03:38:51.739Z,110
2017-05-29T03:40:02.013Z,110
2017-05-29T03:41:12.222Z,110
2017-05-29T03:42:22.171Z,110
2017-05-29T03:43:31.805Z,110
2017-05-29T03:44:42.068Z,115
2017-05-29T03:45:52.333Z,115
2017-05-29T03:47:02.610Z,115
2017-05-29T03:48:12.885Z,115
2017-05-29T03:49:22.844Z,125
2017-05-29T03:50:32.487Z,120
2017-05-29T03:51:42.758Z,120
2017-05-29T03:52:53.028Z,120
2017-05-29T03:54:03.296Z,120
2017-05-29T03:55:13.556Z,125
2017-05-29T03:56:23.192Z,125
2017-05-29T03:57:33.152Z,125
2017-05-29T03:58:43.415Z,125
2017-05-29T03:59:53.371Z,125
2017-05-29T04:01:03.343Z,125
2017-05-29T04:02:13.291Z,125
2017-05-29T04:03:23.241Z,115
2017-05-29T04:04:33.195Z,115
2017-05-29T04:05:43.149Z,115
2017-05-29T04:06:53.421Z,120
2017-05-29T04:08:03.681Z,125
2017-05-29T04:09:13.949Z,120
2017-05-29T04:10:23.590Z,120
2017-05-29T04:11:33.852Z,130
2017-05-29T04:12:43.807Z,135
2017-05-29T04:13:54.089Z,135
2017-05-29T04:15:04.362Z,135
2017-05-29T04:16:14.319Z,140
2017-05-29T04:17:24.600Z,140
2017-05-29T04:18:34.232Z,145
2017-05-29T04:19:44.188Z,150
2017-05-29T04:20:54.450Z,150
2017-05-29T04:22:04.716Z,150
2017-05-29T04:23:14.992Z,145
2017-05-29T04:24:25.256Z,140
2017-05-29T04:25:35.208Z,150
2017-05-29T04:26:45.478Z,150
2017-05-29T04:27:55.442Z,150
2017-05-29T04:29:05.085Z,155
2017-05-29T04:30:15.037Z,155
2017-05-29T04:31:24.997Z,160
2017-05-29T04:32:34.949Z,155
2017-05-29T04:33:44.901Z,155
2017-05-29T04:34:55.166Z,150
2017-05-29T04:36:05.135Z,160
2017-05-29T04:37:15.088Z,165
2017-05-29T04:38:25.354Z,170
2017-05-29T04:39:35.304Z,155
2017-05-29T04:40:45.261Z,160
2017-05-29T04:41:55.216Z,160
2017-05-29T04:43:05.172Z,160
2017-05-29T04:44:15.130Z,155
2017-05-29T04:45:25.401Z,160
2017-05-29T04:46:35.668Z,160
2017-05-29T04:47:46.593Z,160
2017-05-29T04:48:57.638Z,165
2017-05-29T04:50:07.282Z,160
2017-05-29T04:51:17.562Z,175
2017-05-29T04:52:27.519Z,175
2017-05-29T04:53:37.469Z,175
2017-05-29T04:54:47.746Z,170
2017-05-29T04:55:57.706Z,170
2017-05-29T04:57:07.667Z,160
2017-05-29T04:58:16.992Z,160
2017-05-29T04:59:27.258Z,155
2017-05-29T05:00:37.212Z,155
2017-05-29T05:01:47.479Z,155
2017-05-29T05:02:57.758Z,155
2017-05-29T05:04:07.713Z,160
2017-05-29T05:05:17.979Z,165
2017-05-29T05:06:27.933Z,160
2017-05-29T05:07:37.890Z,160
2017-05-29T05:08:48.165Z,160
2017-05-29T05:09:58.427Z,160
2017-05-29T05:11:08.694Z,160
2017-05-29T05:12:18.652Z,165
2017-05-29T05:13:28.919Z,165
2017-05-29T05:14:38.249Z,185
2017-05-29T05:15:48.515Z,190
2017-05-29T05:16:58.834Z,195
2017-05-29T05:18:08.792Z,195
2017-05-29T05:19:19.061Z,200
2017-05-29T05:20:29.030Z,200
2017-05-29T05:21:38.989Z,200
2017-05-29T05:22:48.629Z,200
2017-05-29T05:23:58.901Z,200
2017-05-29T05:25:09.170Z,200
2017-05-29T05:26:19.129Z,200
2017-05-29T05:27:29.399Z,200
2017-05-29T05:28:39.052Z,205
2017-05-29T05:29:49.325Z,210
2017-05-29T05:30:59.280Z,210
2017-05-29T05:32:09.229Z,205
2017-05-29T05:33:19.190Z,190
2017-05-29T05:34:29.143Z,195
2017-05-29T05:35:39.103Z,210
2017-05-29T05:36:49.369Z,230
2017-05-29T05:37:59.639Z,240
2017-05-29T05:39:09.914Z,240
2017-05-29T05:40:20.186Z,240
2017-05-29T05:41:30.450Z,230
2017-05-29T05:42:40.767Z,230
2017-05-29T05:43:51.068Z,240
2017-05-29T05:45:00.706Z,245
2017-05-29T05:46:10.344Z,245
2017-05-29T05:47:20.304Z,245
2017-05-29T05:48:30.581Z,240
2017-05-29T05:49:40.849Z,235
2017-05-29T05:50:50.812Z,230
2017-05-29T05:52:01.087Z,220
2017-05-29T05:53:11.046Z,225
2017-05-29T05:54:21.321Z,205
2017-05-29T05:55:31.273Z,205
2017-05-29T05:56:40.968Z,205
2017-05-29T05:57:50.931Z,220
2017-05-29T05:59:00.894Z,215
2017-05-29T06:00:11.176Z,240
2017-05-29T06:01:21.447Z,245
2017-05-29T06:02:31.730Z,260
2017-05-29T06:03:41.742Z,270
2017-05-29T06:04:52.010Z,285
2017-05-29T06:06:02.283Z,295
2017-05-29T06:07:12.549Z,300
2017-05-29T06:08:22.501Z,305
2017-05-29T06:09:32.451Z,310
2017-05-29T06:10:42.089Z,315
2017-05-29T06:11:52.360Z,320
2017-05-29T06:13:02.641Z,325
2017-05-29T06:14:12.277Z,335
2017-05-29T06:15:22.233Z,335
2017-05-29T06:16:32.502Z,340
2017-05-29T06:17:42.463Z,340
2017-05-29T06:18:52.734Z,340
2017-05-29T06:20:03.011Z,340
2017-05-29T06:21:12.967Z,340
2017-05-29T06:22:23.239Z,350
2017-05-29T06:23:33.510Z,360
2017-05-29T06:24:43.476Z,360
2017-05-29T06:25:53.739Z,350
2017-05-29T06:27:04.014Z,330
2017-05-29T06:28:14.284Z,330
2017-05-29T06:29:24.558Z,335
2017-05-29T06:30:34.828Z,350
2017-05-29T06:31:45.096Z,360
2017-05-29T06:32:55.057Z,360
2017-05-29T06:34:05.017Z,370
2017-05-29T06:35:14.657Z,380
2017-05-29T06:36:25.284Z,395
2017-05-29T06:37:35.270Z,410
2017-05-29T06:38:45.541Z,430
2017-05-29T06:39:55.493Z,450
2017-05-29T06:41:05.459Z,455
2017-05-29T06:42:15.104Z,455
2017-05-29T06:43:25.061Z,460
2017-05-29T06:44:35.338Z,460
2017-05-29T06:45:45.615Z,460
2017-05-29T06:46:55.887Z,460
2017-05-29T06:48:06.160Z,450
2017-05-29T06:49:16.434Z,430
2017-05-29T06:50:26.394Z,415
2017-05-29T06:51:36.667Z,400
2017-05-29T06:52:46.636Z,390
2017-05-29T06:53:56.905Z,390
2017-05-29T06:55:07.185Z,400
2017-05-29T06:56:17.146Z,405
2017-05-29T06:57:27.115Z,410
2017-05-29T06:58:37.076Z,420
2017-05-29T06:59:47.364Z,425
2017-05-29T07:00:57.005Z,435
2017-05-29T07:02:07.278Z,440
2017-05-29T07:03:16.924Z,425
2017-05-29T07:04:26.883Z,410
2017-05-29T07:05:36.898Z,410
2017-05-29T07:06:47.162Z,405
2017-05-29T07:07:57.438Z,405
2017-05-29T07:09:07.405Z,395
2017-05-29T07:10:17.358Z,390
2017-05-29T07:11:27.630Z,380
2017-05-29T07:12:37.906Z,380
2017-05-29T07:13:48.180Z,385
2017-05-29T07:14:58.452Z,380
2017-05-29T07:16:08.425Z,365
2017-05-29T07:17:18.376Z,355
2017-05-29T07:18:28.346Z,350
2017-05-29T07:19:38.619Z,360
2017-05-29T07:20:48.575Z,370
2017-05-29T07:21:58.849Z,385
2017-05-29T07:23:09.118Z,395
2017-05-29T07:24:19.386Z,395
2017-05-29T07:25:29.343Z,395
2017-05-29T07:26:39.618Z,390
2017-05-29T07:27:49.570Z,390
2017-05-29T07:29:01.845Z,395
2017-05-29T07:30:12.117Z,405
2017-05-29T07:31:22.385Z,420
2017-05-29T07:32:32.028Z,425
2017-05-29T07:33:42.301Z,435
2017-05-29T07:34:51.954Z,435
2017-05-29T07:36:02.224Z,430
2017-05-29T07:37:12.497Z,425
2017-05-29T07:38:21.902Z,425
2017-05-29T07:39:31.862Z,445
2017-05-29T07:40:42.169Z,455
2017-05-29T07:41:52.125Z,480
2017-05-29T07:43:02.401Z,485
2017-05-29T07:44:12.356Z,475
2017-05-29T07:45:22.007Z,455
2017-05-29T07:46:31.958Z,430
2017-05-29T07:47:41.915Z,405
2017-05-29T07:48:51.869Z,395
2017-05-29T07:50:01.828Z,390
2017-05-29T07:51:12.100Z,380
2017-05-29T07:52:22.053Z,375
2017-05-29T07:53:32.330Z,365
2017-05-29T07:54:42.295Z,365
2017-05-29T07:55:52.246Z,370
2017-05-29T07:57:02.200Z,370
2017-05-29T07:58:12.470Z,370
2017-05-29T07:59:22.744Z,365
2017-05-29T08:00:33.015Z,360
2017-05-29T08:01:42.970Z,355
2017-05-29T08:02:53.242Z,350
2017-05-29T08:04:03.214Z,345
2017-05-29T08:05:12.850Z,335
2017-05-29T08:06:22.498Z,330
2017-05-29T08:07:32.775Z,320
2017-05-29T08:08:42.779Z,315
2017-05-29T08:09:52.626Z,310
2017-05-29T08:11:02.579Z,305
2017-05-29T08:12:12.547Z,310
2017-05-29T08:13:22.511Z,320
2017-05-29T08:14:32.472Z,320
2017-05-29T08:15:42.743Z,330
2017-05-29T08:16:52.390Z,345
2017-05-29T08:18:02.349Z,360
2017-05-29T08:19:12.306Z,375
2017-05-29T08:20:21.947Z,390
2017-05-29T08:21:32.220Z,400
2017-05-29T08:22:42.180Z,415
2017-05-29T08:23:52.138Z,425
2017-05-29T08:25:02.149Z,430
2017-05-29T08:26:12.415Z,440
2017-05-29T08:27:22.063Z,450
2017-05-29T08:28:32.328Z,455
2017-05-29T08:29:42.606Z,465
2017-05-29T08:30:52.253Z,470
2017-05-29T08:32:02.206Z,470
2017-05-29T08:33:12.470Z,470
2017-05-29T08:34:22.429Z,470
2017-05-29T08:35:32.076Z,480
2017-05-29T08:36:42.391Z,490
2017-05-29T08:37:52.677Z,500
2017-05-29T08:39:04.954Z,510
2017-05-29T08:40:14.597Z,520
2017-05-29T08:41:24.548Z,535
2017-05-29T08:42:34.826Z,535
2017-05-29T08:43:45.115Z,550
2017-05-29T08:44:55.074Z,560
2017-05-29T08:46:04.718Z,575
2017-05-29T08:47:14.681Z,555
2017-05-29T08:48:24.951Z,555
2017-05-29T08:49:35.232Z,560
2017-05-29T08:50:45.186Z,560
2017-05-29T08:51:55.146Z,555
2017-05-29T08:53:05.412Z,560
2017-05-29T08:54:15.372Z,565
2017-05-29T08:55:25.335Z,570
2017-05-29T08:56:35.306Z,585
2017-05-29T08:57:45.602Z,600
2017-05-29T08:58:55.871Z,625
2017-05-29T09:00:06.151Z,650
2017-05-29T09:01:16.462Z,665
2017-05-29T09:02:26.105Z,670
2017-05-29T09:03:36.271Z,685
2017-05-29T09:04:46.542Z,695
2017-05-29T09:05:56.809Z,700
2017-05-29T09:07:06.769Z,710
2017-05-29T09:08:16.731Z,705
2017-05-29T09:09:26.384Z,705
2017-05-29T09:10:36.353Z,685
2017-05-29T09:11:46.361Z,690
2017-05-29T09:12:56.322Z,695
2017-05-29T09:14:06.593Z,685
2017-05-29T09:15:16.550Z,675
2017-05-29T09:16:26.512Z,670
2017-05-29T09:17:36.777Z,680
2017-05-29T09:18:46.741Z,685
2017-05-29T09:19:57.006Z,685
2017-05-29T09:21:07.271Z,680
2017-05-29T09:22:17.227Z,685
2017-05-29T09:23:27.505Z,670
2017-05-29T09:24:37.785Z,635
2017-05-29T09:25:48.063Z,595
2017-05-29T09:26:58.335Z,590
2017-05-29T09:28:07.992Z,550
2017-05-29T09:29:18.265Z,540
2017-05-29T09:30:27.916Z,530
2017-05-29T09:31:38.196Z,510
2017-05-29T09:32:48.465Z,510
2017-05-29T09:33:58.114Z,505
2017-05-29T09:35:08.074Z,495
2017-05-29T09:36:17.724Z,500
2017-05-29T09:37:27.679Z,500
2017-05-29T09:38:37.326Z,490
2017-05-29T09:39:46.659Z,460
2017-05-29T09:40:56.928Z,455
2017-05-29T09:42:07.197Z,445
2017-05-29T09:43:17.163Z,425
2017-05-29T09:44:27.435Z,435
2017-05-29T09:45:37.402Z,435
2017-05-29T09:46:47.681Z,440
2017-05-29T09:47:57.013Z,445
2017-05-29T09:49:07.284Z,455
2017-05-29T09:50:17.558Z,460
2017-05-29T09:51:27.829Z,465
2017-05-29T09:52:38.100Z,470
2017-05-29T09:53:48.602Z,480
2017-05-29T09:54:58.871Z,505
2017-05-29T09:56:08.828Z,520
2017-05-29T09:57:18.792Z,530
2017-05-29T09:58:29.070Z,545
2017-05-29T09:59:39.031Z,560
2017-05-29T10:00:48.367Z,575
2017-05-29T10:01:58.320Z,580
2017-05-29T10:03:08.280Z,585
2017-05-29T10:04:17.605Z,595
2017-05-29T10:05:27.250Z,605
2017-05-29T10:06:37.210Z,610
2017-05-29T10:07:47.170Z,610
2017-05-29T10:08:57.454Z,610
2017-05-29T10:10:07.725Z,615
2017-05-29T10:11:17.057Z,625
2017-05-29T10:12:29.327Z,610
2017-05-29T10:13:39.285Z,605
2017-05-29T10:14:49.568Z,620
2017-05-29T10:15:59.842Z,615
2017-05-29T10:17:10.342Z,620
2017-05-29T10:18:20.618Z,635
2017-05-29T10:19:29.949Z,660
2017-05-29T10:20:40.216Z,670
2017-05-29T10:21:50.488Z,655
2017-05-29T10:23:00.448Z,620
2017-05-29T10:24:10.726Z,580
2017-05-29T10:25:20.686Z,555
2017-05-29T10:26:30.017Z,535
2017-05-29T10:27:39.661Z,540
2017-05-29T10:28:49.928Z,555
2017-05-29T10:30:00.201Z,600
2017-05-29T10:31:09.846Z,580
2017-05-29T10:32:20.125Z,620
2017-05-29T10:33:30.082Z,650
2017-05-29T10:34:40.353Z,720
2017-05-29T10:35:50.619Z,775
2017-05-29T10:37:00.599Z,825
2017-05-29T10:38:10.872Z,800
2017-05-29T10:39:20.821Z,740
2017-05-29T10:40:30.787Z,745
2017-05-29T10:41:40.742Z,755
2017-05-29T10:42:51.020Z,725
2017-05-29T10:44:01.292Z,710
2017-05-29T10:45:11.244Z,710
2017-05-29T10:46:21.201Z,730
2017-05-29T10:47:31.470Z,745
2017-05-29T10:48:41.428Z,765
2017-05-29T10:49:51.700Z,760
2017-05-29T10:51:01.970Z,755
2017-05-29T10:52:11.935Z,740
2017-05-29T10:53:21.891Z,715
2017-05-29T10:54:31.852Z,725
2017-05-29T10:55:42.130Z,740
2017-05-29T10:56:52.402Z,740
2017-05-29T10:58:02.357Z,780
2017-05-29T10:59:12.368Z,880
2017-05-29T11:00:22.640Z,880
2017-05-29T11:01:32.610Z,845
2017-05-29T11:02:42.569Z,800
2017-05-29T11:03:52.539Z,810
2017-05-29T11:05:02.816Z,805
2017-05-29T11:06:12.459Z,770
2017-05-29T11:07:22.338Z,755
2017-05-29T11:08:32.296Z,760
2017-05-29T11:09:42.256Z,760
2017-05-29T11:10:52.218Z,725
2017-05-29T11:12:02.173Z,710
2017-05-29T11:13:12.452Z,645
2017-05-29T11:14:22.411Z,575
2017-05-29T11:15:32.372Z,545
2017-05-29T11:16:42.639Z,540
2017-05-29T11:17:52.935Z,535
2017-05-29T11:19:02.890Z,515
2017-05-29T11:20:12.541Z,505
2017-05-29T11:21:22.188Z,515
2017-05-29T11:22:32.144Z,520
2017-05-29T11:23:42.414Z,550
2017-05-29T11:24:52.688Z,565
2017-05-29T11:26:02.335Z,610
2017-05-29T11:27:12.369Z,685
2017-05-29T11:28:22.325Z,770
2017-05-29T11:29:32.279Z,870
2017-05-29T11:30:42.551Z,955
2017-05-29T11:31:52.827Z,960
2017-05-29T11:33:02.788Z,1480
2017-05-29T11:34:12.751Z,1260
2017-05-29T11:35:22.395Z,1915
2017-05-29T11:36:32.664Z,940
2017-05-29T11:37:42.943Z,770
2017-05-29T11:38:53.223Z,740
2017-05-29T11:40:03.496Z,680
2017-05-29T11:41:13.764Z,630
2017-05-29T11:42:23.411Z,595
2017-05-29T11:43:33.682Z,560
2017-05-29T11:44:43.656Z,540
2017-05-29T11:45:53.616Z,530
2017-05-29T11:47:03.950Z,545
2017-05-29T11:48:14.233Z,570
2017-05-29T11:49:23.565Z,565
2017-05-29T11:50:33.212Z,530
2017-05-29T11:51:43.485Z,515
2017-05-29T11:52:53.760Z,490
2017-05-29T11:54:03.402Z,455
2017-05-29T11:55:13.677Z,415
2017-05-29T11:56:23.322Z,405
2017-05-29T11:57:33.284Z,370
2017-05-29T11:58:43.241Z,365
2017-05-29T11:59:53.199Z,370
2017-05-29T12:01:03.481Z,370
2017-05-29T12:02:13.122Z,370
2017-05-29T12:03:22.135Z,370
2017-05-29T12:04:32.411Z,370
2017-05-29T12:05:42.372Z,360
2017-05-29T12:06:52.639Z,355
2017-05-29T12:08:01.967Z,355
2017-05-29T12:09:11.925Z,345
2017-05-29T12:10:21.567Z,340
2017-05-29T12:11:31.209Z,360
2017-05-29T12:12:40.850Z,375
2017-05-29T12:13:51.124Z,340
2017-05-29T12:15:01.082Z,350
2017-05-29T12:16:11.036Z,375
2017-05-29T12:17:21.310Z,400
2017-05-29T12:18:31.270Z,400
2017-05-29T12:19:41.228Z,380
2017-05-29T12:20:51.505Z,390
2017-05-29T12:22:01.774Z,390
2017-05-29T12:23:12.054Z,385
2017-05-29T12:24:22.013Z,375
2017-05-29T12:25:32.283Z,355
2017-05-29T12:26:42.571Z,355
2017-05-29T12:27:52.848Z,395
2017-05-29T12:29:02.806Z,435
2017-05-29T12:30:13.082Z,465
2017-05-29T12:31:23.039Z,485
2017-05-29T12:32:33.009Z,485
2017-05-29T12:33:43.282Z,495
2017-05-29T12:34:53.553Z,495
2017-05-29T12:36:03.517Z,490
2017-05-29T12:37:13.472Z,760
2017-05-29T12:38:23.748Z,470
2017-05-29T12:39:33.704Z,470
2017-05-29T12:40:43.980Z,420
2017-05-29T12:41:54.253Z,385
2017-05-29T12:43:04.529Z,375
2017-05-29T12:44:14.489Z,385
2017-05-29T12:45:24.155Z,385
2017-05-29T12:46:34.434Z,400
2017-05-29T12:47:44.080Z,410
2017-05-29T12:48:54.348Z,420
2017-05-29T12:50:04.348Z,445
2017-05-29T12:51:14.628Z,455
2017-05-29T12:52:24.274Z,460
2017-05-29T12:53:34.547Z,470
2017-05-29T12:54:44.510Z,490
2017-05-29T12:55:54.746Z,535
2017-05-29T12:57:05.026Z,590
2017-05-29T12:58:15.295Z,665
2017-05-29T12:59:25.568Z,705
2017-05-29T13:00:35.524Z,670
2017-05-29T13:01:45.797Z,645
2017-05-29T13:02:56.079Z,605
2017-05-29T13:04:06.034Z,550
2017-05-29T13:05:16.003Z,500
2017-05-29T13:06:45.180Z,470
2017-05-29T13:07:55.451Z,465
2017-05-29T13:09:05.410Z,465
2017-05-29T13:10:15.059Z,450
2017-05-29T13:11:24.712Z,485
2017-05-29T13:12:34.979Z,580
2017-05-29T13:13:44.940Z,680
2017-05-29T13:14:54.923Z,795
2017-05-29T13:16:05.197Z,985
2017-05-29T13:17:15.157Z,1685
2017-05-29T13:18:25.431Z,1530
2017-05-29T13:19:35.722Z,1380
2017-05-29T13:20:45.676Z,2090
2017-05-29T13:21:55.639Z,1845
2017-05-29T13:23:05.596Z,1355
2017-05-29T13:24:15.870Z,1215
2017-05-29T13:25:25.203Z,930
2017-05-29T13:26:35.475Z,850
2017-05-29T13:27:45.441Z,795
2017-05-29T13:28:55.399Z,770
2017-05-29T13:30:05.678Z,785
2017-05-29T13:31:15.323Z,835
2017-05-29T13:32:24.978Z,920
2017-05-29T13:33:35.252Z,915
2017-05-29T13:34:44.900Z,1020
2017-05-29T13:35:55.173Z,1575
2017-05-29T13:37:05.141Z,1590
2017-05-29T13:38:16.092Z,1455
2017-05-29T13:39:26.248Z,1385
2017-05-29T13:40:36.537Z,1160
2017-05-29T13:41:46.816Z,1110
2017-05-29T13:42:57.098Z,1140
2017-05-29T13:44:07.384Z,1235
2017-05-29T13:45:17.348Z,2020
2017-05-29T13:46:27.622Z,1235
2017-05-29T13:47:37.898Z,935
2017-05-29T13:48:48.176Z,785
2017-05-29T13:49:58.452Z,735
2017-05-29T13:51:08.734Z,775
2017-05-29T13:52:18.694Z,845
2017-05-29T13:53:28.653Z,890
2017-05-29T13:54:38.299Z,890
2017-05-29T13:55:48.580Z,855
2017-05-29T13:56:58.539Z,785
2017-05-29T13:58:08.822Z,690
2017-05-29T13:59:19.096Z,615
2017-05-29T14:00:29.059Z,575
2017-05-29T14:01:39.020Z,575
2017-05-29T14:02:49.506Z,580
2017-05-29T14:03:59.801Z,575
2017-05-29T14:05:09.765Z,580
2017-05-29T14:06:19.729Z,605
2017-05-29T14:07:29.700Z,615
2017-05-29T14:08:39.348Z,615
2017-05-29T14:09:49.308Z,650
2017-05-29T14:10:59.578Z,690
2017-05-29T14:12:09.541Z,750
2017-05-29T14:13:19.505Z,820
2017-05-29T14:14:29.146Z,920
2017-05-29T14:15:39.111Z,1120
2017-05-29T14:16:49.069Z,1275
2017-05-29T14:17:59.343Z,1280
2017-05-29T14:19:09.618Z,1435
2017-05-29T14:20:19.893Z,1255
2017-05-29T14:21:29.853Z,1180
2017-05-29T14:22:39.505Z,1055
2017-05-29T14:23:49.460Z,1165
2017-05-29T14:24:59.731Z,1585
2017-05-29T14:26:09.697Z,1935
2017-05-29T14:27:19.350Z,1720
2017-05-29T14:28:29.317Z,2040
2017-05-29T14:29:39.597Z,1560
2017-05-29T14:30:49.870Z,2100
2017-05-29T14:31:59.531Z,2610
2017-05-29T14:33:09.808Z,2160
2017-05-29T14:34:19.461Z,2145
2017-05-29T14:35:29.733Z,2430
2017-05-29T14:36:39.384Z,1330
2017-05-29T14:37:49.661Z,1000
2017-05-29T14:38:59.947Z,1240
2017-05-29T14:40:09.911Z,1245
2017-05-29T14:41:19.876Z,1440
2017-05-29T14:42:29.841Z,1065
2017-05-29T14:43:39.800Z,1245
2017-05-29T14:44:49.760Z,950
2017-05-29T14:46:00.058Z,970
2017-05-29T14:47:10.016Z,1005
2017-05-29T14:48:19.979Z,955
2017-05-29T14:49:30.261Z,1325
2017-05-29T14:50:40.542Z,980
2017-05-29T14:51:50.826Z,980
2017-05-29T14:53:01.100Z,1010
2017-05-29T14:54:11.378Z,1105
2017-05-29T14:55:21.346Z,1230
2017-05-29T14:56:31.312Z,1395
2017-05-29T14:57:41.596Z,910
2017-05-29T14:58:51.876Z,790
2017-05-29T15:00:01.836Z,785
2017-05-29T15:01:11.833Z,820
2017-05-29T15:02:21.806Z,880
2017-05-29T15:03:31.766Z,1065
2017-05-29T15:04:42.051Z,1215
2017-05-29T15:05:52.331Z,1975
2017-05-29T15:07:02.295Z,2005
2017-05-29T15:08:12.283Z,1225
2017-05-29T15:09:22.257Z,1145
2017-05-29T15:10:31.591Z,1130
2017-05-29T15:11:41.866Z,1055
2017-05-29T15:12:52.156Z,1115
2017-05-29T15:14:02.125Z,2805
2017-05-29T15:15:12.401Z,1120
2017-05-29T15:16:22.370Z,1045
2017-05-29T15:17:32.333Z,1145
2017-05-29T15:18:42.608Z,1140
2017-05-29T15:19:52.566Z,875
2017-05-29T15:21:02.843Z,800
2017-05-29T15:22:12.807Z,730
2017-05-29T15:23:22.462Z,670
2017-05-29T15:24:32.741Z,645
2017-05-29T15:25:43.013Z,625
2017-05-29T15:26:52.664Z,615
2017-05-29T15:28:02.939Z,630
2017-05-29T15:29:13.215Z,635
2017-05-29T15:30:23.183Z,625
2017-05-29T15:31:33.459Z,595
2017-05-29T15:32:43.109Z,575
2017-05-29T15:33:53.383Z,565
2017-05-29T15:35:03.663Z,605
2017-05-29T15:36:13.627Z,660
2017-05-29T15:37:23.903Z,1055
2017-05-29T15:38:33.558Z,1100
2017-05-29T15:39:43.520Z,1090
2017-05-29T15:40:53.799Z,1010
2017-05-29T15:42:04.080Z,1030
2017-05-29T15:43:14.047Z,820
2017-05-29T15:44:24.012Z,1090
2017-05-29T15:45:33.979Z,1100
2017-05-29T15:46:44.253Z,1235
2017-05-29T15:47:54.533Z,1020
2017-05-29T15:49:04.499Z,745
2017-05-29T15:50:14.774Z,630
2017-05-29T15:51:24.736Z,545
2017-05-29T15:52:35.012Z,480
2017-05-29T15:53:44.664Z,455
2017-05-29T15:54:54.637Z,460
2017-05-29T15:56:04.922Z,495
2017-05-29T15:57:15.209Z,530
2017-05-29T15:58:24.868Z,540
2017-05-29T15:59:35.152Z,535
2017-05-29T16:00:44.808Z,575
2017-05-29T16:01:54.456Z,555
2017-05-29T16:03:04.422Z,470
2017-05-29T16:04:14.387Z,445
2017-05-29T16:05:24.722Z,440
2017-05-29T16:06:35.000Z,465
2017-05-29T16:07:45.280Z,490
2017-05-29T16:08:55.245Z,470
2017-05-29T16:10:05.216Z,455
2017-05-29T16:11:15.495Z,455
2017-05-29T16:12:25.767Z,455
2017-05-29T16:13:36.050Z,465